This is the latest recevied weather packets stored in our database for station/object EA4BCR. If no packets are shown the sender has not sent any weather packets the latest 10 day(s).
| Time | Temp. | Humidity | Pressure | Rain* | Wind** | Luminosity | Snow |
|---|---|---|---|---|---|---|---|
| 1787933416 | 26.67° C | 18% | 1015 hPa | - | - | - | - |
| 1787932815 | 26.67° C | 18% | 1015.2 hPa | - | - | - | - |
| 1787932216 | 26.67° C | 18% | 1015.3 hPa | - | - | - | - |
| 1787931616 | 27.22° C | 18% | 1015 hPa | - | - | - | - |
| 1787931016 | 26.67° C | 19% | 1015.3 hPa | - | - | - | - |
| 1787930416 | 26.67° C | 18% | 1015.3 hPa | - | - | - | - |
| 1787929815 | 26.67° C | 20% | 1015.4 hPa | - | - | - | - |
| 1787929215 | 27.22° C | 19% | 1015.3 hPa | - | - | - | - |
| 1787928616 | 27.22° C | 19% | 1015.2 hPa | - | - | - | - |
| 1787928016 | 26.67° C | 19% | 1015.3 hPa | - | - | - | - |
| 1787927417 | 27.22° C | 19% | 1015.3 hPa | - | - | - | - |
| 1787926816 | 27.22° C | 17% | 1015.3 hPa | - | - | - | - |
| 1787926216 | 27.22° C | 17% | 1015.4 hPa | - | - | - | - |
| 1787925615 | 27.78° C | 19% | 1015.2 hPa | - | - | - | - |
| 1787925016 | 26.67° C | 19% | 1015.5 hPa | - | - | - | - |
| 1787924416 | 26.67° C | 20% | 1015.8 hPa | - | - | - | - |
| 1787923815 | 26.67° C | 22% | 1015.9 hPa | - | - | - | - |
| 1787923216 | 26.67° C | 22% | 1016 hPa | - | - | - | - |
| 1787922616 | 25.56° C | 22% | 1016.6 hPa | - | - | - | - |
| 1787922015 | 26.67° C | 22% | 1016.3 hPa | - | - | - | - |
| 1787921415 | 25.56° C | 26% | 1016.6 hPa | - | - | - | - |
| 1787920815 | 26.11° C | 26% | 1016.5 hPa | - | - | - | - |
| 1787920215 | 25° C | 27% | 1016.9 hPa | - | - | - | - |
| 1787919615 | 25° C | 27% | 1017.2 hPa | - | - | - | - |
| 1787919015 | 25° C | 27% | 1017 hPa | - | - | - | - |
* Rain since midnight (hover to see other rain measurements)
** Current wind speed in m/s (hover to see current wind gust speed)